Campbellford, Canada
Current Conditions -  °F | °C
As of 7:00 PM on Wednesday 22 Oct 2014 (Local Time) from CYTR Reporting Station
Overcast Overcast  
Wind Chill: 50°   Ceiling: 3100
Heat Index: 50°   Visibility: 15mi
Dew Point: 48°   Wind: 8mph
Humidity: 94%   Direction: 350°N
Pressure: 30.22"   Gusts: NA
Location:  44.3°N, 77.8°W
Report Text: CYTR 222300Z 35007KT 15SM OVC031 10/09 A3022 RMK SC8 SLP235
Loading
Personal Weather Stations






























Interactive Weather Map
Tropical Storm Tracking
New forecast layout! Learn more

10-Day Weather Forecast

Advertisements
Track Severe Weather on mobile